Etusivu
METAR-TAF:

METAR-TAF

Lentoasemat :

Polokwane, Etelä-Afrikka

Leveyspiiri: 23-50-43S, Pituuspiiri: 29-27-31E, korkeus merenpinnasta: 1242 m

Tämänhetkinen sää

Tämä raportti tehtiin 36 minuuttia sitten, kello 10.00 UTC
Tuuli 6 kn pohjoisesta
Lämpötila 19°C
Kosteus 68%
Ilmanpaine 1020 hPa
Näkyvyys 10 km tai enemmän
Hajonneita pilviä 2800 ft:n korkeudessa

METAR: FAPP 061000Z 35006KT 9999 BKN028 19/13 Q1020 NOSIG

Aika: 12:36 (10:36 UTC)

Sääennuste

Tämä raportti tehtiin 1 tunti ja 36 minuuttia sitten, kello 09.00 UTC
Ennuste voimassa 06. päivästä klo 10 UTC - 06. päivään klo 18 UTC
Tuuli 7 kn luoteesta
Näkyvyys 10 km tai enemmän
Hajonneita pilviä 2000 ft:n korkeudessa
Tulossa
06. päivästä klo 15 UTC - 06. päivään klo 17 UTC
Tuuli 3 kn eri suunnista

TAF: FAPP 060900Z 0610/0618 32007KT 9999 BKN020 TX22/0612Z TN20/0618Z BECMG 0615/0617 VRB03KT

Säähavainnot ja -ennusteet yli 4000 lentoasemalta (METAR- ja TAF-raportit).

Käytössä olevat sääasemat on merkitty karttaan keltaisilla ja punaisilla pisteillä.

Aseta hiiri pisteen päälle nähdäksesi sääaseman nimen.

Klikkaa sitten nähdäksesi säähavainnot ja -ennusteet.

Kartan vaihtaminen: klikkaa mustalla rastilla varustettuja vihreitä pisteitä, niin voit zoomata sisään; viivalla varustettua vihreää pistettä, niin voit zoomata ulos tai vihreitä nuolia, niin pääset viereisille kartoille.


METAR-TAF: